메인 페이지
METAR-TAF:

METAR-TAF

공항 :

마데이라 공항

푼샬, 마데이라 제도, 포르투갈

위도: 32-41-52N, 경도: 016-46-28W, 고도: 59m

현재 날씨관측

예보는 17분 전, 05:30시(UTC)에 발표되었습니다.
5kt
온도 21°C
습도 69%
기압 1019 hPa
시정 10km 이상
고도 1600ft 상공 구름 많음

METAR: LPMA 230530Z 35005KT 9999 BKN016 21/15 Q1019

시각: 06:47 (05:47 UTC)

예보

예보는 47분 전, 05:00시(UTC)에 발표되었습니다.
예보 대상 시간: 23일 06시부터 24일 06시까지 (UTC)
8kt
시정 10km 이상
고도 1600ft 상공 구름 보통
일시적
23일 06시부터 23일 09시까지 (UTC)
여러 방향의 바람 5kt
고도 1500ft 상공 구름 많음

TAF: LPMA 230500Z 2306/2406 01008KT 9999 SCT016 TEMPO 2306/2309 VRB05KT BKN015

4,000개 이상의 공항 관측 자료 및 예보 (METAR 및 TAF 보고).

지도상에서 검색 가능한 기상관측소가 노란 점과 빨간 점으로 표시되어 있습니다.

기상관측소 명을 보려면 표시 위로 마우스를 이동하세요.

날씨 관측과 예보를 보려면 클릭하세요.

지도 변경 : 확대하려면 엑스 표시가 있는 녹색 버튼, 축소하려면 빼기 표시가 있는 녹색 버튼, 다음 페이지의 지도를 보려면 녹색 화살표를 클릭하세요.


METAR-TAF: